Weather at Willow Run Airport

Public forecast

Using degrees Fahrenheit for public forecast. Weather courtesy of forecast.io.

Current aviation weather report (METAR) for Willow Run Airport

Retrieved 2021/02/25 11:53 UTC (43 minutes ago):

KYIP 251153Z 29005KT 10SM CLR M04/M09 A3026 RMK AO2 SLP253 T10441094 10006 21050 51011

Aviation forecast (TAF) for Willow Run Airport

Retrieved 2021/02/25 12:22 UTC (14 minutes ago):

TAF KYIP 251120Z 2512/2612 30007KT P6SM SKC FM251700 24010KT P6SM SCT030 FM251900 26013KT P6SM BKN040 FM252300 24010KT P6SM SKC FM260500 25003KT 5SM HZ SKC